createdAt,value
2018-07-25T00:00:26.376Z,0
2018-07-25T00:01:25.580Z,0
2018-07-25T00:02:26.375Z,0
2018-07-25T00:03:26.102Z,0
2018-07-25T00:04:26.086Z,0
2018-07-25T00:05:26.071Z,0
2018-07-25T00:06:26.332Z,0
2018-07-25T00:07:26.062Z,0
2018-07-25T00:08:25.528Z,0
2018-07-25T00:09:26.053Z,0
2018-07-25T00:10:26.466Z,0
2018-07-25T00:11:26.043Z,0
2018-07-25T00:12:26.047Z,0
2018-07-25T00:13:26.297Z,0
2018-07-25T00:14:26.028Z,0
2018-07-25T00:15:26.280Z,0
2018-07-25T00:16:26.005Z,0
2018-07-25T00:17:26.267Z,0
2018-07-25T00:18:25.993Z,0
2018-07-25T00:19:26.255Z,0
2018-07-25T00:20:25.981Z,0
2018-07-25T00:21:26.704Z,0
2018-07-25T00:22:25.698Z,0
2018-07-25T00:23:26.224Z,0
2018-07-25T00:24:26.217Z,0
2018-07-25T00:25:26.213Z,0
2018-07-25T00:26:26.223Z,0
2018-07-25T00:27:25.673Z,0
2018-07-25T00:28:26.242Z,0
2018-07-25T00:29:26.187Z,0
2018-07-25T00:30:26.176Z,0
2018-07-25T00:31:26.164Z,0
2018-07-25T00:32:25.361Z,0
2018-07-25T00:33:26.160Z,0
2018-07-25T00:34:25.884Z,0
2018-07-25T00:35:26.149Z,0
2018-07-25T00:36:25.424Z,0
2018-07-25T00:37:25.856Z,0
2018-07-25T00:38:26.128Z,0
2018-07-25T00:39:26.116Z,0
2018-07-25T00:40:25.848Z,0
2018-07-25T00:41:25.563Z,0
2018-07-25T00:42:26.091Z,0
2018-07-25T00:43:25.553Z,0
2018-07-25T00:44:26.069Z,0
2018-07-25T00:45:26.068Z,0
2018-07-25T00:46:25.800Z,0
2018-07-25T00:47:26.055Z,0
2018-07-25T00:48:26.045Z,0
2018-07-25T00:49:26.037Z,0
2018-07-25T00:50:26.037Z,0
2018-07-25T00:51:26.285Z,0
2018-07-25T00:52:26.283Z,0
2018-07-25T00:53:26.011Z,0
2018-07-25T00:54:26.000Z,0
2018-07-25T00:55:26.407Z,0
2018-07-25T00:56:25.457Z,0
2018-07-25T00:57:25.976Z,0
2018-07-25T00:58:25.720Z,0
2018-07-25T00:59:26.226Z,0
2018-07-25T01:00:25.697Z,0
2018-07-25T01:01:26.211Z,0
2018-07-25T01:02:26.222Z,0
2018-07-25T01:03:25.669Z,0
2018-07-25T01:04:25.395Z,0
2018-07-25T01:05:25.658Z,0
2018-07-25T01:06:26.172Z,0
2018-07-25T01:07:25.903Z,0
2018-07-25T01:08:25.368Z,0
2018-07-25T01:09:25.892Z,0
2018-07-25T01:10:25.877Z,0
2018-07-25T01:11:25.866Z,0
2018-07-25T01:12:26.174Z,0
2018-07-25T01:13:25.600Z,0
2018-07-25T01:14:25.853Z,0
2018-07-25T01:15:25.840Z,0
2018-07-25T01:16:25.576Z,0
2018-07-25T01:17:25.576Z,0
2018-07-25T01:18:25.290Z,0
2018-07-25T01:19:25.019Z,0
2018-07-25T01:20:25.808Z,0
2018-07-25T01:21:25.803Z,0
2018-07-25T01:22:25.791Z,0
2018-07-25T01:23:25.515Z,0
2018-07-25T01:24:25.257Z,0
2018-07-25T01:25:25.769Z,0
2018-07-25T01:26:25.762Z,0
2018-07-25T01:27:25.486Z,0
2018-07-25T01:28:26.006Z,0
2018-07-25T01:29:25.470Z,0
2018-07-25T01:30:25.742Z,0
2018-07-25T01:31:25.721Z,0
2018-07-25T01:32:25.459Z,0
2018-07-25T01:33:25.450Z,0
2018-07-25T01:34:25.696Z,0
2018-07-25T01:35:25.963Z,0
2018-07-25T01:36:25.938Z,0
2018-07-25T01:37:25.154Z,0
2018-07-25T01:38:25.933Z,0
2018-07-25T01:39:25.391Z,0
2018-07-25T01:40:25.395Z,0
2018-07-25T01:41:25.379Z,0
2018-07-25T01:42:25.640Z,0
2018-07-25T01:43:25.372Z,0
2018-07-25T01:44:25.091Z,0
2018-07-25T01:45:25.344Z,0
2018-07-25T01:46:25.608Z,0
2018-07-25T01:47:25.336Z,0
2018-07-25T01:48:25.063Z,0
2018-07-25T01:49:25.592Z,0
2018-07-25T01:50:25.046Z,0
2018-07-25T01:51:25.305Z,0
2018-07-25T01:52:25.837Z,0
2018-07-25T01:53:25.553Z,0
2018-07-25T01:54:25.543Z,0
2018-07-25T01:55:25.539Z,0
2018-07-25T01:56:25.551Z,0
2018-07-25T01:57:25.525Z,0
2018-07-25T01:58:25.515Z,0
2018-07-25T01:59:24.980Z,0
2018-07-25T02:00:25.229Z,0
2018-07-25T02:01:25.421Z,0
2018-07-25T02:02:25.219Z,0
2018-07-25T02:03:24.676Z,0
2018-07-25T02:04:25.515Z,0
2018-07-25T02:05:25.727Z,0
2018-07-25T02:06:25.455Z,0
2018-07-25T02:07:25.186Z,0
2018-07-25T02:08:25.055Z,0
2018-07-25T02:09:25.424Z,0
2018-07-25T02:10:24.897Z,0
2018-07-25T02:11:25.156Z,0
2018-07-25T02:12:24.609Z,0
2018-07-25T02:13:25.399Z,0
2018-07-25T02:14:25.121Z,0
2018-07-25T02:15:25.124Z,0
2018-07-25T02:16:25.374Z,0
2018-07-25T02:17:25.637Z,0
2018-07-25T02:18:25.087Z,0
2018-07-25T02:19:24.873Z,0
2018-07-25T02:20:25.074Z,0
2018-07-25T02:21:25.339Z,0
2018-07-25T02:22:25.326Z,0
2018-07-25T02:23:24.787Z,0
2018-07-25T02:24:25.050Z,0
2018-07-25T02:25:24.783Z,0
2018-07-25T02:26:25.299Z,0
2018-07-25T02:27:25.544Z,0
2018-07-25T02:28:25.008Z,0
2018-07-25T02:29:25.030Z,0
2018-07-25T02:30:24.746Z,0
2018-07-25T02:31:25.263Z,0
2018-07-25T02:32:24.974Z,0
2018-07-25T02:33:25.518Z,0
2018-07-25T02:34:25.252Z,0
2018-07-25T02:35:25.222Z,0
2018-07-25T02:36:25.231Z,0
2018-07-25T02:37:25.001Z,0
2018-07-25T02:38:24.729Z,0
2018-07-25T02:39:25.189Z,0
2018-07-25T02:40:24.664Z,0
2018-07-25T02:41:24.918Z,0
2018-07-25T02:42:25.584Z,0
2018-07-25T02:43:25.167Z,0
2018-07-25T02:44:25.152Z,0
2018-07-25T02:45:24.872Z,0
2018-07-25T02:46:25.135Z,0
2018-07-25T02:47:24.862Z,0
2018-07-25T02:48:25.118Z,0
2018-07-25T02:49:24.863Z,0
2018-07-25T02:50:24.837Z,0
2018-07-25T02:51:25.091Z,0
2018-07-25T02:52:25.090Z,0
2018-07-25T02:53:24.822Z,0
2018-07-25T02:54:25.061Z,0
2018-07-25T02:55:24.789Z,0
2018-07-25T02:56:24.793Z,0
2018-07-25T02:57:25.046Z,0
2018-07-25T02:58:25.090Z,0
2018-07-25T02:59:24.779Z,0
2018-07-25T03:00:25.284Z,0
2018-07-25T03:01:24.483Z,0
2018-07-25T03:02:25.008Z,0
2018-07-25T03:03:24.995Z,0
2018-07-25T03:04:24.731Z,0
2018-07-25T03:05:24.750Z,0
2018-07-25T03:06:24.979Z,0
2018-07-25T03:07:24.699Z,0
2018-07-25T03:08:25.212Z,0
2018-07-25T03:09:24.948Z,0
2018-07-25T03:10:24.667Z,0
2018-07-25T03:11:24.659Z,0
2018-07-25T03:12:24.973Z,0
2018-07-25T03:13:24.909Z,0
2018-07-25T03:14:24.381Z,0
2018-07-25T03:15:25.165Z,0
2018-07-25T03:16:25.154Z,0
2018-07-25T03:17:24.874Z,0
2018-07-25T03:18:24.863Z,0
2018-07-25T03:19:24.877Z,0
2018-07-25T03:20:25.121Z,0
2018-07-25T03:21:24.846Z,0
2018-07-25T03:22:24.855Z,0
2018-07-25T03:23:25.093Z,0
2018-07-25T03:24:24.861Z,0
2018-07-25T03:25:25.074Z,0
2018-07-25T03:26:24.527Z,0
2018-07-25T03:27:24.794Z,0
2018-07-25T03:28:24.517Z,0
2018-07-25T03:29:24.000Z,0
2018-07-25T03:30:25.088Z,0
2018-07-25T03:31:24.584Z,0
2018-07-25T03:32:24.215Z,0
2018-07-25T03:33:24.465Z,0
2018-07-25T03:34:24.458Z,0
2018-07-25T03:35:24.443Z,0
2018-07-25T03:36:24.444Z,0
2018-07-25T03:37:24.481Z,0
2018-07-25T03:38:24.418Z,0
2018-07-25T03:39:24.411Z,0
2018-07-25T03:40:24.665Z,0
2018-07-25T03:41:24.656Z,0
2018-07-25T03:42:24.124Z,0
2018-07-25T03:43:24.643Z,0
2018-07-25T03:44:24.364Z,0
2018-07-25T03:45:24.623Z,0
2018-07-25T03:46:24.616Z,0
2018-07-25T03:47:24.869Z,5
2018-07-25T03:48:24.062Z,5
2018-07-25T03:49:24.342Z,5
2018-07-25T03:50:24.314Z,5
2018-07-25T03:51:24.573Z,5
2018-07-25T03:52:24.829Z,5
2018-07-25T03:53:24.549Z,5
2018-07-25T03:54:24.293Z,5
2018-07-25T03:55:24.528Z,5
2018-07-25T03:56:24.526Z,5
2018-07-25T03:57:24.791Z,5
2018-07-25T03:58:24.248Z,5
2018-07-25T03:59:24.247Z,5
2018-07-25T04:00:23.962Z,5
2018-07-25T04:01:24.756Z,10
2018-07-25T04:02:23.950Z,10
2018-07-25T04:03:24.717Z,10
2018-07-25T04:04:24.736Z,10
2018-07-25T04:05:24.176Z,10
2018-07-25T04:06:24.706Z,10
2018-07-25T04:07:24.156Z,10
2018-07-25T04:08:24.954Z,10
2018-07-25T04:09:24.172Z,10
2018-07-25T04:10:24.405Z,10
2018-07-25T04:11:24.065Z,10
2018-07-25T04:12:24.114Z,15
2018-07-25T04:13:24.108Z,15
2018-07-25T04:14:24.361Z,15
2018-07-25T04:15:24.105Z,15
2018-07-25T04:16:24.080Z,15
2018-07-25T04:17:23.811Z,15
2018-07-25T04:18:24.061Z,15
2018-07-25T04:19:24.055Z,15
2018-07-25T04:20:24.055Z,15
2018-07-25T04:21:24.037Z,15
2018-07-25T04:22:24.290Z,15
2018-07-25T04:23:24.026Z,20
2018-07-25T04:24:24.023Z,20
2018-07-25T04:25:24.281Z,20
2018-07-25T04:26:24.258Z,20
2018-07-25T04:27:23.456Z,20
2018-07-25T04:28:23.986Z,20
2018-07-25T04:29:24.228Z,20
2018-07-25T04:30:24.493Z,20
2018-07-25T04:31:23.688Z,25
2018-07-25T04:32:24.200Z,25
2018-07-25T04:33:23.930Z,25
2018-07-25T04:34:24.181Z,25
2018-07-25T04:35:24.184Z,25
2018-07-25T04:36:23.382Z,25
2018-07-25T04:37:24.184Z,25
2018-07-25T04:38:23.889Z,25
2018-07-25T04:39:23.877Z,25
2018-07-25T04:40:24.397Z,25
2018-07-25T04:41:24.122Z,30
2018-07-25T04:42:23.594Z,30
2018-07-25T04:43:23.855Z,30
2018-07-25T04:44:23.836Z,30
2018-07-25T04:45:24.093Z,30
2018-07-25T04:46:25.279Z,30
2018-07-25T04:47:24.069Z,30
2018-07-25T04:48:23.793Z,30
2018-07-25T04:49:23.789Z,30
2018-07-25T04:50:24.041Z,30
2018-07-25T04:51:23.772Z,30
2018-07-25T04:52:24.031Z,35
2018-07-25T04:53:23.757Z,35
2018-07-25T04:54:23.745Z,35
2018-07-25T04:55:24.276Z,35
2018-07-25T04:56:23.905Z,35
2018-07-25T04:57:24.242Z,35
2018-07-25T04:58:23.714Z,35
2018-07-25T04:59:23.957Z,35
2018-07-25T05:00:23.694Z,35
2018-07-25T05:01:23.700Z,35
2018-07-25T05:02:23.685Z,35
2018-07-25T05:03:23.926Z,35
2018-07-25T05:04:23.659Z,40
2018-07-25T05:05:23.381Z,40
2018-07-25T05:06:23.631Z,40
2018-07-25T05:07:23.861Z,40
2018-07-25T05:08:24.169Z,40
2018-07-25T05:09:23.603Z,40
2018-07-25T05:10:23.603Z,40
2018-07-25T05:11:23.609Z,40
2018-07-25T05:12:23.596Z,40
2018-07-25T05:13:23.576Z,40
2018-07-25T05:14:23.310Z,40
2018-07-25T05:15:24.089Z,45
2018-07-25T05:16:23.826Z,45
2018-07-25T05:17:23.541Z,45
2018-07-25T05:18:24.068Z,45
2018-07-25T05:19:23.528Z,45
2018-07-25T05:20:24.055Z,45
2018-07-25T05:21:24.038Z,45
2018-07-25T05:22:23.760Z,45
2018-07-25T05:23:23.771Z,45
2018-07-25T05:24:23.482Z,45
2018-07-25T05:25:24.000Z,45
2018-07-25T05:26:23.719Z,45
2018-07-25T05:27:23.456Z,45
2018-07-25T05:28:23.444Z,50
2018-07-25T05:29:23.484Z,50
2018-07-25T05:30:23.650Z,50
2018-07-25T05:31:23.426Z,50
2018-07-25T05:32:23.145Z,50
2018-07-25T05:33:23.399Z,50
2018-07-25T05:34:23.445Z,50
2018-07-25T05:35:23.385Z,50
2018-07-25T05:36:23.639Z,50
2018-07-25T05:37:23.379Z,50
2018-07-25T05:38:23.747Z,50
2018-07-25T05:39:23.611Z,55
2018-07-25T05:40:23.627Z,55
2018-07-25T05:41:23.333Z,55
2018-07-25T05:42:23.858Z,55
2018-07-25T05:43:23.593Z,55
2018-07-25T05:44:23.052Z,55
2018-07-25T05:45:23.569Z,55
2018-07-25T05:46:23.561Z,55
2018-07-25T05:47:23.818Z,55
2018-07-25T05:48:23.536Z,55
2018-07-25T05:49:23.700Z,55
2018-07-25T05:50:23.527Z,55
2018-07-25T05:51:23.257Z,60
2018-07-25T05:52:23.247Z,60
2018-07-25T05:53:22.972Z,60
2018-07-25T05:54:23.488Z,60
2018-07-25T05:55:23.233Z,60
2018-07-25T05:56:23.207Z,60
2018-07-25T05:57:23.470Z,60
2018-07-25T05:58:23.454Z,60
2018-07-25T05:59:23.443Z,60
2018-07-25T06:00:23.179Z,60
2018-07-25T06:01:23.167Z,60
2018-07-25T06:02:23.702Z,60
2018-07-25T06:03:23.992Z,65
2018-07-25T06:04:23.714Z,65
2018-07-25T06:05:23.391Z,65
2018-07-25T06:06:22.604Z,65
2018-07-25T06:07:22.859Z,65
2018-07-25T06:08:23.117Z,65
2018-07-25T06:09:23.371Z,65
2018-07-25T06:10:23.096Z,65
2018-07-25T06:11:23.290Z,65
2018-07-25T06:12:23.074Z,65
2018-07-25T06:13:23.190Z,65
2018-07-25T06:14:23.209Z,65
2018-07-25T06:15:23.053Z,70
2018-07-25T06:16:22.784Z,70
2018-07-25T06:17:23.300Z,70
2018-07-25T06:18:23.297Z,70
2018-07-25T06:19:23.053Z,70
2018-07-25T06:20:23.078Z,70
2018-07-25T06:21:23.009Z,70
2018-07-25T06:22:23.002Z,70
2018-07-25T06:23:22.729Z,70
2018-07-25T06:24:23.242Z,75
2018-07-25T06:25:23.028Z,75
2018-07-25T06:26:23.251Z,75
2018-07-25T06:27:23.230Z,75
2018-07-25T06:28:23.212Z,75
2018-07-25T06:29:22.687Z,75
2018-07-25T06:30:22.672Z,75
2018-07-25T06:31:23.140Z,75
2018-07-25T06:32:22.924Z,75
2018-07-25T06:33:23.190Z,75
2018-07-25T06:34:23.487Z,75
2018-07-25T06:35:23.159Z,75
2018-07-25T06:36:23.156Z,75
2018-07-25T06:37:22.621Z,75
2018-07-25T06:38:23.415Z,75
2018-07-25T06:39:23.133Z,75
2018-07-25T06:40:22.331Z,75
2018-07-25T06:41:22.588Z,75
2018-07-25T06:42:22.840Z,75
2018-07-25T06:43:23.738Z,80
2018-07-25T06:44:22.823Z,80
2018-07-25T06:45:23.090Z,80
2018-07-25T06:46:22.554Z,80
2018-07-25T06:47:22.802Z,80
2018-07-25T06:48:22.532Z,80
2018-07-25T06:49:23.321Z,80
2018-07-25T06:50:22.522Z,80
2018-07-25T06:51:23.040Z,85
2018-07-25T06:52:22.520Z,85
2018-07-25T06:53:22.763Z,85
2018-07-25T06:54:22.760Z,85
2018-07-25T06:55:22.488Z,85
2018-07-25T06:56:22.740Z,85
2018-07-25T06:57:23.072Z,85
2018-07-25T06:58:22.731Z,85
2018-07-25T06:59:22.460Z,85
2018-07-25T07:00:22.708Z,85
2018-07-25T07:01:23.229Z,85
2018-07-25T07:02:23.220Z,90
2018-07-25T07:03:22.423Z,90
2018-07-25T07:04:22.684Z,90
2018-07-25T07:05:22.411Z,90
2018-07-25T07:06:22.666Z,90
2018-07-25T07:07:22.397Z,90
2018-07-25T07:08:22.652Z,90
2018-07-25T07:09:22.376Z,90
2018-07-25T07:10:22.907Z,95
2018-07-25T07:11:22.905Z,95
2018-07-25T07:12:22.976Z,95
2018-07-25T07:13:22.892Z,95
2018-07-25T07:14:22.613Z,95
2018-07-25T07:15:22.881Z,95
2018-07-25T07:16:22.333Z,95
2018-07-25T07:17:22.668Z,100
2018-07-25T07:18:22.582Z,100
2018-07-25T07:20:23.103Z,100
2018-07-25T07:21:22.824Z,100
2018-07-25T07:22:22.820Z,100
2018-07-25T07:23:22.554Z,100
2018-07-25T07:24:22.808Z,100
2018-07-25T07:25:22.847Z,105
2018-07-25T07:26:22.788Z,105
2018-07-25T07:27:22.531Z,105
2018-07-25T07:28:22.508Z,105
2018-07-25T07:29:22.505Z,105
2018-07-25T07:30:22.501Z,110
2018-07-25T07:31:22.629Z,110
2018-07-25T07:32:22.758Z,110
2018-07-25T07:33:22.227Z,110
2018-07-25T07:34:22.474Z,115
2018-07-25T07:35:22.881Z,480
2018-07-25T07:36:22.723Z,915
2018-07-25T07:37:22.963Z,960
2018-07-25T07:38:22.448Z,1000
2018-07-25T07:39:22.975Z,1045
2018-07-25T07:40:22.438Z,1075
2018-07-25T07:41:22.183Z,1080
2018-07-25T07:42:22.431Z,1060
2018-07-25T07:43:22.953Z,1025
2018-07-25T07:44:22.527Z,1015
2018-07-25T07:45:22.153Z,1030
2018-07-25T07:46:21.879Z,1030
2018-07-25T07:47:22.929Z,1050
2018-07-25T07:48:22.408Z,1105
2018-07-25T07:49:22.396Z,1145
2018-07-25T07:50:22.395Z,1125
2018-07-25T07:51:22.653Z,1090
2018-07-25T07:52:22.671Z,1120
2018-07-25T07:53:21.866Z,1160
2018-07-25T07:54:22.658Z,1170
2018-07-25T07:55:22.128Z,1180
2018-07-25T07:56:22.381Z,1210
2018-07-25T07:57:22.646Z,1205
2018-07-25T07:58:22.111Z,1185
2018-07-25T07:59:22.485Z,1170
2018-07-25T08:00:22.905Z,1170
2018-07-25T08:01:22.382Z,1145
2018-07-25T08:02:22.391Z,1110
2018-07-25T08:03:22.428Z,1155
2018-07-25T08:04:22.380Z,1245
2018-07-25T08:05:22.647Z,1250
2018-07-25T08:06:22.385Z,1205
2018-07-25T08:07:22.423Z,1180
2018-07-25T08:08:22.118Z,1180
2018-07-25T08:09:22.656Z,1195
2018-07-25T08:10:22.124Z,1230
2018-07-25T08:11:22.593Z,1255
2018-07-25T08:12:22.133Z,1245
2018-07-25T08:13:22.652Z,1230
2018-07-25T08:14:22.394Z,1210
2018-07-25T08:15:22.655Z,1180
2018-07-25T08:16:22.939Z,1185
2018-07-25T08:17:22.682Z,1200
2018-07-25T08:18:22.671Z,1240
2018-07-25T08:19:22.681Z,1260
2018-07-25T08:20:21.881Z,1260
2018-07-25T08:21:22.485Z,1280
2018-07-25T08:22:22.946Z,1290
2018-07-25T08:23:22.944Z,1310
2018-07-25T08:24:22.952Z,1310
2018-07-25T08:25:22.157Z,1245
2018-07-25T08:26:22.695Z,1190
2018-07-25T08:27:22.428Z,1225
2018-07-25T08:28:22.970Z,1275
2018-07-25T08:29:22.435Z,1285
2018-07-25T08:30:22.175Z,1270
2018-07-25T08:31:22.504Z,1260
2018-07-25T08:32:22.440Z,1295
2018-07-25T08:33:22.713Z,1325
2018-07-25T08:34:22.818Z,1350
2018-07-25T08:35:22.191Z,1350
2018-07-25T08:36:22.393Z,1335
2018-07-25T08:37:22.724Z,1335
2018-07-25T08:38:22.207Z,1320
2018-07-25T08:39:22.994Z,1290
2018-07-25T08:40:22.204Z,1135
2018-07-25T08:41:22.611Z,655
2018-07-25T08:42:22.760Z,590
2018-07-25T08:43:22.485Z,490
2018-07-25T08:44:23.013Z,305
2018-07-25T08:45:22.219Z,230
2018-07-25T08:46:22.492Z,200
2018-07-25T08:47:22.763Z,215
2018-07-25T08:48:21.972Z,195
2018-07-25T08:49:22.258Z,205
2018-07-25T08:50:22.768Z,180
2018-07-25T08:51:22.768Z,175
2018-07-25T08:52:22.558Z,180
2018-07-25T08:53:22.788Z,180
2018-07-25T08:54:23.047Z,180
2018-07-25T08:55:22.781Z,180
2018-07-25T08:56:22.799Z,180
2018-07-25T08:57:22.796Z,180
2018-07-25T08:58:22.781Z,225
2018-07-25T08:59:22.260Z,390
2018-07-25T09:00:22.811Z,650
2018-07-25T09:01:22.800Z,400
2018-07-25T09:02:21.993Z,315
2018-07-25T09:03:23.051Z,285
2018-07-25T09:04:22.520Z,405
2018-07-25T09:05:22.776Z,415
2018-07-25T09:06:22.578Z,460
2018-07-25T09:07:22.517Z,790
2018-07-25T09:08:22.246Z,965
2018-07-25T09:09:22.510Z,720
2018-07-25T09:10:22.248Z,455
2018-07-25T09:11:21.990Z,360
2018-07-25T09:12:23.096Z,280
2018-07-25T09:13:22.557Z,225
2018-07-25T09:14:22.781Z,250
2018-07-25T09:15:22.243Z,325
2018-07-25T09:16:23.049Z,290
2018-07-25T09:17:22.258Z,225
2018-07-25T09:18:22.515Z,240
2018-07-25T09:19:22.249Z,220
2018-07-25T09:20:22.514Z,315
2018-07-25T09:21:22.774Z,310
2018-07-25T09:22:22.507Z,435
2018-07-25T09:23:22.249Z,440
2018-07-25T09:24:22.504Z,490
2018-07-25T09:25:23.308Z,470
2018-07-25T09:26:22.240Z,360
2018-07-25T09:27:22.516Z,485
2018-07-25T09:28:24.032Z,290
2018-07-25T09:29:23.383Z,250
2018-07-25T09:30:22.261Z,225
2018-07-25T09:31:23.097Z,245
2018-07-25T09:32:22.293Z,240
2018-07-25T09:33:22.251Z,320
2018-07-25T09:34:22.923Z,260
2018-07-25T09:35:22.543Z,380
2018-07-25T09:36:24.694Z,240
2018-07-25T09:37:22.802Z,235
2018-07-25T09:38:22.819Z,300
2018-07-25T09:39:22.567Z,290
2018-07-25T09:40:22.564Z,215
2018-07-25T09:41:22.795Z,300
2018-07-25T09:42:23.117Z,390
2018-07-25T09:43:23.292Z,295
2018-07-25T09:44:22.814Z,300
2018-07-25T09:45:23.039Z,280
2018-07-25T09:46:22.968Z,375
2018-07-25T09:47:22.833Z,555
2018-07-25T09:48:22.235Z,585
2018-07-25T09:49:22.847Z,240
2018-07-25T09:50:23.676Z,235
2018-07-25T09:51:22.769Z,255
2018-07-25T09:52:22.806Z,220
2018-07-25T09:53:23.026Z,235
2018-07-25T09:54:22.518Z,225
2018-07-25T09:55:22.792Z,215
2018-07-25T09:56:22.486Z,240
2018-07-25T09:57:23.144Z,230
2018-07-25T09:58:23.961Z,285
2018-07-25T09:59:22.780Z,220
2018-07-25T10:00:22.463Z,245
2018-07-25T10:01:22.541Z,245
2018-07-25T10:02:22.514Z,235
2018-07-25T10:03:23.038Z,240
2018-07-25T10:04:22.487Z,270
2018-07-25T10:05:22.780Z,280
2018-07-25T10:06:22.779Z,320
2018-07-25T10:07:22.952Z,265
2018-07-25T10:08:22.463Z,285
2018-07-25T10:09:22.190Z,215
2018-07-25T10:10:22.743Z,220
2018-07-25T10:11:22.419Z,220
2018-07-25T10:12:23.504Z,220
2018-07-25T10:13:22.934Z,235
2018-07-25T10:14:21.928Z,255
2018-07-25T10:15:23.225Z,225
2018-07-25T10:16:22.799Z,230
2018-07-25T10:17:22.772Z,225
2018-07-25T10:18:22.766Z,225
2018-07-25T10:19:22.435Z,390
2018-07-25T10:20:24.166Z,490
2018-07-25T10:21:22.731Z,710
2018-07-25T10:22:22.431Z,425
2018-07-25T10:23:22.703Z,365
2018-07-25T10:24:22.735Z,460
2018-07-25T10:25:22.431Z,385
2018-07-25T10:26:23.028Z,280
2018-07-25T10:27:23.621Z,280
2018-07-25T10:28:24.061Z,780
2018-07-25T10:29:22.717Z,1080
2018-07-25T10:30:22.427Z,1285
2018-07-25T10:31:22.721Z,765
2018-07-25T10:32:22.697Z,1870
2018-07-25T10:33:22.149Z,1845
2018-07-25T10:34:22.706Z,1795
2018-07-25T10:35:23.114Z,1740
2018-07-25T10:36:22.695Z,1705
2018-07-25T10:37:22.445Z,1715
2018-07-25T10:38:22.440Z,1740
2018-07-25T10:39:22.176Z,1760
2018-07-25T10:40:22.715Z,1755
2018-07-25T10:41:22.723Z,1765
2018-07-25T10:42:23.285Z,1765
2018-07-25T10:43:24.209Z,1750
2018-07-25T10:44:22.739Z,1740
2018-07-25T10:45:23.003Z,1750
2018-07-25T10:46:22.992Z,1750
2018-07-25T10:47:23.007Z,1775
2018-07-25T10:48:23.008Z,1810
2018-07-25T10:49:22.764Z,1900
2018-07-25T10:50:23.754Z,2005
2018-07-25T10:51:22.263Z,2020
2018-07-25T10:52:22.783Z,1980
2018-07-25T10:53:22.509Z,1930
2018-07-25T10:54:23.039Z,1850
2018-07-25T10:55:22.511Z,1820
2018-07-25T10:56:23.088Z,1875
2018-07-25T10:57:23.153Z,1890
2018-07-25T10:58:22.966Z,1870
2018-07-25T10:59:23.191Z,1890
2018-07-25T11:00:22.298Z,1870
2018-07-25T11:01:22.581Z,1855
2018-07-25T11:02:23.536Z,1825
2018-07-25T11:03:22.998Z,1780
2018-07-25T11:04:22.309Z,1760
2018-07-25T11:05:22.882Z,1775
2018-07-25T11:06:22.624Z,1745
2018-07-25T11:07:22.892Z,1740
2018-07-25T11:08:22.638Z,1735
2018-07-25T11:09:22.891Z,1750
2018-07-25T11:10:22.345Z,1800
2018-07-25T11:11:22.613Z,1880
2018-07-25T11:12:22.638Z,1900
2018-07-25T11:13:23.472Z,1845
2018-07-25T11:14:24.180Z,1755
2018-07-25T11:15:22.395Z,1735
2018-07-25T11:16:23.682Z,1710
2018-07-25T11:17:22.668Z,1670
2018-07-25T11:18:22.421Z,1640
2018-07-25T11:19:22.976Z,1635
2018-07-25T11:20:23.002Z,1595
2018-07-25T11:21:23.594Z,1620
2018-07-25T11:22:22.725Z,1625
2018-07-25T11:23:23.455Z,1660
2018-07-25T11:24:23.004Z,1645
2018-07-25T11:25:23.084Z,1600
2018-07-25T11:26:22.500Z,1600
2018-07-25T11:27:23.025Z,1645
2018-07-25T11:28:23.980Z,1720
2018-07-25T11:29:24.287Z,1815
2018-07-25T11:30:23.375Z,1855
2018-07-25T11:31:22.521Z,1850
2018-07-25T11:32:23.488Z,1840
2018-07-25T11:33:23.079Z,1810
2018-07-25T11:34:23.126Z,1800
2018-07-25T11:35:23.034Z,1815
2018-07-25T11:36:22.834Z,1810
2018-07-25T11:37:23.364Z,1820
2018-07-25T11:38:23.378Z,1770
2018-07-25T11:39:22.868Z,1710
2018-07-25T11:40:23.130Z,1730
2018-07-25T11:41:23.144Z,1795
2018-07-25T11:42:22.893Z,1835
2018-07-25T11:43:23.164Z,1780
2018-07-25T11:44:22.909Z,1675
2018-07-25T11:45:23.186Z,1615
2018-07-25T11:46:23.460Z,1655
2018-07-25T11:47:23.207Z,1725
2018-07-25T11:48:23.215Z,1825
2018-07-25T11:49:22.965Z,1810
2018-07-25T11:50:23.146Z,1720
2018-07-25T11:51:22.974Z,1700
2018-07-25T11:52:23.254Z,1680
2018-07-25T11:53:23.257Z,1625
2018-07-25T11:54:23.012Z,1575
2018-07-25T11:55:23.828Z,1515
2018-07-25T11:56:22.779Z,1465
2018-07-25T11:57:23.306Z,1445
2018-07-25T11:58:23.050Z,1510
2018-07-25T11:59:23.325Z,1565
2018-07-25T12:00:23.075Z,1595
2018-07-25T12:01:23.595Z,1575
2018-07-25T12:02:23.362Z,1545
2018-07-25T12:03:23.371Z,1545
2018-07-25T12:04:23.372Z,1550
2018-07-25T12:05:23.403Z,1560
2018-07-25T12:06:23.473Z,1510
2018-07-25T12:07:23.283Z,1480
2018-07-25T12:08:25.159Z,1460
2018-07-25T12:09:22.923Z,1420
2018-07-25T12:10:22.932Z,1380
2018-07-25T12:11:23.209Z,1335
2018-07-25T12:12:23.249Z,1325
2018-07-25T12:13:23.261Z,1355
2018-07-25T12:14:23.271Z,1385
2018-07-25T12:15:24.249Z,1440
2018-07-25T12:16:24.699Z,1500
2018-07-25T12:17:22.712Z,1590
2018-07-25T12:18:23.007Z,1635
2018-07-25T12:19:23.296Z,1670
2018-07-25T12:20:23.302Z,1660
2018-07-25T12:21:23.932Z,1640
2018-07-25T12:22:23.684Z,1655
2018-07-25T12:23:24.269Z,1745
2018-07-25T12:24:23.372Z,1790
2018-07-25T12:25:23.408Z,1800
2018-07-25T12:26:23.397Z,1775
2018-07-25T12:27:23.692Z,1775
2018-07-25T12:28:23.666Z,1765
2018-07-25T12:29:23.996Z,1710
2018-07-25T12:30:23.168Z,1675
2018-07-25T12:31:22.868Z,1720
2018-07-25T12:32:23.747Z,1785
2018-07-25T12:33:24.024Z,1765
2018-07-25T12:35:23.198Z,1460
2018-07-25T12:36:23.757Z,1440
2018-07-25T12:37:24.944Z,1615
2018-07-25T12:38:24.275Z,1730
2018-07-25T12:39:24.093Z,1755
2018-07-25T12:40:23.834Z,1760
2018-07-25T12:41:24.093Z,1740
2018-07-25T12:42:24.115Z,1725
2018-07-25T12:43:24.158Z,1670
2018-07-25T12:44:23.596Z,1615
2018-07-25T12:45:24.961Z,1505
2018-07-25T12:46:23.037Z,1455
2018-07-25T12:47:23.410Z,620
2018-07-25T12:48:24.211Z,330
2018-07-25T12:49:23.943Z,340
2018-07-25T12:50:24.298Z,365
2018-07-25T12:51:23.383Z,405
2018-07-25T12:52:23.825Z,470
2018-07-25T12:53:24.594Z,900
2018-07-25T12:54:23.797Z,1155
2018-07-25T12:55:24.274Z,1055
2018-07-25T12:56:23.421Z,575
2018-07-25T12:57:24.554Z,435
2018-07-25T12:58:24.294Z,410
2018-07-25T12:59:24.226Z,425
2018-07-25T13:00:24.402Z,415
2018-07-25T13:01:23.749Z,425
2018-07-25T13:02:24.020Z,465
2018-07-25T13:03:23.765Z,550
2018-07-25T13:04:24.042Z,795
2018-07-25T13:05:23.753Z,1170
2018-07-25T13:06:24.051Z,795
2018-07-25T13:07:25.899Z,1610
2018-07-25T13:08:23.798Z,1350
2018-07-25T13:09:24.348Z,1445
2018-07-25T13:10:24.093Z,615
2018-07-25T13:11:24.117Z,450
2018-07-25T13:12:24.120Z,415
2018-07-25T13:13:24.438Z,420
2018-07-25T13:14:24.288Z,415
2018-07-25T13:15:24.817Z,375
2018-07-25T13:16:23.565Z,370
2018-07-25T13:17:23.571Z,395
2018-07-25T13:18:23.581Z,415
2018-07-25T13:19:23.867Z,650
2018-07-25T13:20:23.878Z,920
2018-07-25T13:21:24.081Z,1465
2018-07-25T13:22:24.166Z,1520
2018-07-25T13:23:23.896Z,1470
2018-07-25T13:24:24.212Z,1490
2018-07-25T13:25:23.911Z,600
2018-07-25T13:26:24.484Z,540
2018-07-25T13:27:23.926Z,615
2018-07-25T13:28:24.109Z,740
2018-07-25T13:29:25.539Z,530
2018-07-25T13:30:25.146Z,535
2018-07-25T13:31:24.521Z,800
2018-07-25T13:32:24.503Z,735
2018-07-25T13:33:24.538Z,1190
2018-07-25T13:34:23.943Z,1290
2018-07-25T13:35:24.282Z,1115
2018-07-25T13:36:24.266Z,840
2018-07-25T13:37:25.492Z,590
2018-07-25T13:38:24.278Z,515
2018-07-25T13:39:24.259Z,445
2018-07-25T13:40:24.023Z,465
2018-07-25T13:41:24.013Z,485
2018-07-25T13:42:24.044Z,515
2018-07-25T13:43:24.363Z,880
2018-07-25T13:44:24.896Z,1380
2018-07-25T13:45:23.955Z,1380
2018-07-25T13:46:25.076Z,1480
2018-07-25T13:47:24.349Z,1345
2018-07-25T13:48:24.849Z,1385
2018-07-25T13:49:24.343Z,1490
2018-07-25T13:50:23.820Z,1465
2018-07-25T13:51:25.484Z,1450
2018-07-25T13:52:24.851Z,1460
2018-07-25T13:53:24.359Z,1480
2018-07-25T13:54:24.078Z,1490
2018-07-25T13:55:24.099Z,1485
2018-07-25T13:56:24.441Z,1470
2018-07-25T13:57:24.107Z,1465
2018-07-25T13:58:23.848Z,1045
2018-07-25T13:59:25.074Z,1060
2018-07-25T14:00:23.842Z,1350
2018-07-25T14:01:24.642Z,1395
2018-07-25T14:02:23.864Z,1390
2018-07-25T14:03:24.700Z,1325